createdAt,value
2018-12-24T00:00:53.131Z,93.44
2018-12-24T00:03:22.420Z,93.64
2018-12-24T00:05:51.681Z,93.79
2018-12-24T00:08:21.045Z,93.99
2018-12-24T00:10:50.327Z,93.93
2018-12-24T00:13:19.615Z,93.81
2018-12-24T00:15:48.938Z,93.87
2018-12-24T00:18:18.264Z,93.89
2018-12-24T00:20:47.491Z,93.67
2018-12-24T00:23:16.756Z,93.72
2018-12-24T00:25:46.049Z,93.81
2018-12-24T00:28:15.333Z,93.88
2018-12-24T00:30:44.600Z,93.73
2018-12-24T00:33:13.851Z,93.83
2018-12-24T00:35:43.097Z,93.80
2018-12-24T00:38:12.468Z,94.05
2018-12-24T00:40:41.735Z,94.20
2018-12-24T00:43:11.006Z,94.07
2018-12-24T00:45:40.238Z,94.19
2018-12-24T00:48:09.730Z,94.23
2018-12-24T00:50:38.738Z,94.08
2018-12-24T00:53:08.005Z,94.11
2018-12-24T00:55:37.452Z,94.02
2018-12-24T00:58:06.705Z,94.21
2018-12-24T01:00:36.083Z,94.26
2018-12-24T01:03:05.331Z,94.18
2018-12-24T01:05:34.600Z,94.25
2018-12-24T01:08:03.949Z,94.26
2018-12-24T01:10:33.263Z,94.28
2018-12-24T01:13:02.649Z,94.33
2018-12-24T01:15:31.973Z,94.29
2018-12-24T01:18:01.514Z,94.27
2018-12-24T01:20:30.799Z,94.15
2018-12-24T01:23:00.337Z,94.16
2018-12-24T01:25:29.860Z,94.34
2018-12-24T01:27:59.343Z,94.40
2018-12-24T01:30:28.699Z,94.44
2018-12-24T01:32:57.929Z,94.32
2018-12-24T01:35:27.221Z,94.37
2018-12-24T01:37:56.457Z,94.34
2018-12-24T01:40:25.727Z,94.25
2018-12-24T01:42:55.099Z,94.13
2018-12-24T01:45:24.393Z,94.11
2018-12-24T01:47:53.805Z,94.08
2018-12-24T01:50:23.126Z,94.13
2018-12-24T01:52:52.344Z,93.91
2018-12-24T01:55:21.651Z,94.23
2018-12-24T01:57:50.917Z,94.40
2018-12-24T02:00:20.148Z,94.48
2018-12-24T02:02:49.537Z,94.65
2018-12-24T02:05:18.801Z,94.56
2018-12-24T02:07:48.123Z,94.60
2018-12-24T02:10:17.397Z,94.46
2018-12-24T02:12:46.650Z,94.27
2018-12-24T02:15:16.113Z,94.28
2018-12-24T02:17:45.416Z,94.34
2018-12-24T02:20:14.715Z,94.20
2018-12-24T02:22:43.961Z,94.20
2018-12-24T02:25:13.325Z,94.17
2018-12-24T02:27:42.615Z,93.90
2018-12-24T02:30:11.851Z,93.93
2018-12-24T02:32:41.106Z,93.95
2018-12-24T02:35:10.375Z,94.24
2018-12-24T02:37:39.597Z,94.22
2018-12-24T02:40:08.922Z,94.04
2018-12-24T02:42:38.208Z,94.09
2018-12-24T02:45:07.521Z,94.11
2018-12-24T02:47:36.761Z,94.03
2018-12-24T02:50:06.029Z,94.15
2018-12-24T02:52:35.296Z,93.89
2018-12-24T02:55:04.554Z,94.03
2018-12-24T02:57:33.790Z,93.72
2018-12-24T03:00:03.021Z,93.77
2018-12-24T03:02:32.266Z,93.66
2018-12-24T03:05:01.508Z,93.56
2018-12-24T03:07:30.824Z,93.69
2018-12-24T03:10:00.269Z,93.87
2018-12-24T03:12:29.413Z,93.78
2018-12-24T03:14:58.825Z,93.62
2018-12-24T03:17:28.226Z,93.12
2018-12-24T03:19:57.713Z,93.37
2018-12-24T03:22:27.122Z,93.49
2018-12-24T03:24:56.468Z,93.74
2018-12-24T03:27:25.653Z,93.72
2018-12-24T03:29:54.943Z,92.83
2018-12-24T03:32:24.219Z,93.17
2018-12-24T03:34:53.535Z,93.19
2018-12-24T03:37:22.797Z,93.11
2018-12-24T03:39:52.035Z,92.62
2018-12-24T03:42:21.355Z,92.82
2018-12-24T03:44:50.643Z,93.04
2018-12-24T03:47:19.947Z,92.59
2018-12-24T03:49:49.233Z,93.09
2018-12-24T03:52:18.503Z,93.06
2018-12-24T03:54:47.837Z,93.22
2018-12-24T03:57:17.120Z,93.49
2018-12-24T03:59:46.433Z,93.49
2018-12-24T04:02:15.730Z,93.46
2018-12-24T04:04:45.073Z,93.43
2018-12-24T04:07:14.285Z,92.23
2018-12-24T04:09:43.556Z,92.16
2018-12-24T04:12:12.788Z,92.73
2018-12-24T04:14:42.059Z,92.46
2018-12-24T04:17:11.332Z,92.48
2018-12-24T04:19:40.669Z,91.99
2018-12-24T04:22:09.939Z,92.54
2018-12-24T04:24:39.197Z,92.72
2018-12-24T04:27:08.433Z,92.54
2018-12-24T04:29:37.765Z,92.94
2018-12-24T04:32:06.992Z,92.36
2018-12-24T04:34:36.235Z,92.50
2018-12-24T04:37:05.564Z,92.26
2018-12-24T04:39:34.745Z,92.39
2018-12-24T04:42:03.981Z,92.41
2018-12-24T04:44:33.203Z,92.71
2018-12-24T04:47:02.449Z,92.74
2018-12-24T04:49:31.743Z,92.76
2018-12-24T04:52:01.059Z,92.62
2018-12-24T04:54:30.341Z,92.72
2018-12-24T04:56:59.601Z,92.23
2018-12-24T04:59:28.850Z,92.43
2018-12-24T05:01:58.130Z,92.35
2018-12-24T05:04:27.452Z,92.57
2018-12-24T05:06:56.727Z,92.76
2018-12-24T05:09:26.061Z,92.85
2018-12-24T05:11:55.303Z,93.27
2018-12-24T05:14:24.599Z,93.20
2018-12-24T05:16:53.944Z,93.24
2018-12-24T05:19:23.196Z,93.35
2018-12-24T05:21:52.453Z,93.28
2018-12-24T05:24:21.731Z,93.31
2018-12-24T05:26:51.046Z,93.31
2018-12-24T05:29:20.311Z,93.16
2018-12-24T05:31:49.659Z,93.00
2018-12-24T05:34:18.905Z,92.87
2018-12-24T05:36:48.187Z,92.88
2018-12-24T05:39:17.431Z,92.85
2018-12-24T05:41:46.710Z,92.52
2018-12-24T05:44:16.060Z,92.71
2018-12-24T05:46:45.294Z,92.66
2018-12-24T05:49:14.520Z,92.22
2018-12-24T05:51:43.990Z,92.54
2018-12-24T05:54:13.225Z,92.22
2018-12-24T05:56:42.585Z,92.20
2018-12-24T05:59:11.861Z,92.34
2018-12-24T06:01:41.163Z,92.27
2018-12-24T06:04:10.438Z,91.88
2018-12-24T06:06:39.692Z,91.04
2018-12-24T06:09:08.990Z,90.87
2018-12-24T06:11:38.225Z,90.30
2018-12-24T06:14:07.524Z,89.99
2018-12-24T06:16:36.781Z,89.60
2018-12-24T06:19:06.019Z,88.93
2018-12-24T06:21:35.268Z,88.62
2018-12-24T06:24:04.565Z,88.88
2018-12-24T06:26:33.901Z,88.83
2018-12-24T06:29:03.140Z,89.30
2018-12-24T06:31:32.483Z,89.10
2018-12-24T06:34:01.726Z,89.34
2018-12-24T06:36:31.088Z,89.33
2018-12-24T06:39:00.360Z,88.86
2018-12-24T06:41:29.652Z,88.83
2018-12-24T06:44:06.544Z,87.67
2018-12-24T06:46:28.216Z,87.03
2018-12-24T06:48:57.470Z,86.74
2018-12-24T06:51:26.758Z,86.56
2018-12-24T06:53:56.106Z,85.27
2018-12-24T06:56:25.352Z,84.46
2018-12-24T06:58:54.606Z,85.44
2018-12-24T07:01:23.864Z,85.87
2018-12-24T07:03:53.120Z,84.31
2018-12-24T07:06:22.368Z,85.13
2018-12-24T07:08:51.628Z,85.64
2018-12-24T07:11:20.846Z,83.81
2018-12-24T07:13:50.189Z,83.91
2018-12-24T07:16:19.511Z,83.72
2018-12-24T07:18:48.748Z,83.69
2018-12-24T07:21:18.008Z,84.40
2018-12-24T07:23:47.286Z,83.58
2018-12-24T07:26:16.520Z,82.95
2018-12-24T07:28:45.934Z,83.22
2018-12-24T07:31:15.176Z,83.17
2018-12-24T07:33:45.364Z,83.79
2018-12-24T07:36:14.596Z,83.81
2018-12-24T07:38:43.844Z,83.90
2018-12-24T07:41:13.064Z,84.47
2018-12-24T07:43:42.425Z,84.11
2018-12-24T07:46:11.684Z,83.91
2018-12-24T07:48:40.970Z,82.48
2018-12-24T07:51:10.310Z,81.55
2018-12-24T07:53:39.565Z,82.54
2018-12-24T07:56:08.902Z,81.87
2018-12-24T07:58:39.486Z,82.28
2018-12-24T08:01:07.524Z,81.19
2018-12-24T08:03:37.059Z,80.89
2018-12-24T08:06:06.355Z,81.52
2018-12-24T08:08:35.638Z,81.17
2018-12-24T08:11:04.904Z,81.43
2018-12-24T08:13:34.175Z,80.25
2018-12-24T08:16:03.484Z,80.35
2018-12-24T08:18:32.762Z,80.69
2018-12-24T08:21:02.026Z,80.59
2018-12-24T08:23:31.291Z,80.62
2018-12-24T08:26:00.627Z,80.30
2018-12-24T08:28:29.898Z,81.18
2018-12-24T08:30:59.136Z,80.62
2018-12-24T08:33:28.441Z,80.60
2018-12-24T08:35:57.687Z,79.32
2018-12-24T08:38:26.978Z,79.87
2018-12-24T08:40:56.338Z,79.98
2018-12-24T08:43:25.635Z,80.61
2018-12-24T08:45:54.881Z,81.12
2018-12-24T08:48:24.124Z,81.09
2018-12-24T08:50:53.538Z,81.43
2018-12-24T08:53:22.836Z,81.14
2018-12-24T08:55:52.302Z,81.27
2018-12-24T08:58:21.641Z,81.74
2018-12-24T09:00:50.916Z,81.64
2018-12-24T09:03:20.164Z,80.96
2018-12-24T09:05:49.464Z,80.87
2018-12-24T09:08:18.736Z,81.03
2018-12-24T09:10:48.016Z,81.09
2018-12-24T09:13:17.255Z,81.40
2018-12-24T09:15:46.578Z,82.12
2018-12-24T09:18:15.936Z,82.21
2018-12-24T09:20:52.617Z,82.48
2018-12-24T09:23:14.618Z,82.84
2018-12-24T09:25:43.858Z,82.99
2018-12-24T09:28:13.123Z,82.51
2018-12-24T09:30:48.501Z,82.93
2018-12-24T09:33:17.944Z,83.60
2018-12-24T09:35:47.174Z,83.46
2018-12-24T09:38:16.425Z,82.84
2018-12-24T09:40:45.688Z,83.24
2018-12-24T09:43:14.984Z,83.01
2018-12-24T09:45:44.208Z,81.98
2018-12-24T09:48:13.469Z,82.43
2018-12-24T09:50:42.719Z,82.99
2018-12-24T09:53:11.967Z,82.64
2018-12-24T09:55:41.229Z,83.11
2018-12-24T09:58:10.489Z,83.17
2018-12-24T10:00:39.737Z,83.52
2018-12-24T10:03:17.413Z,82.07
2018-12-24T10:05:46.685Z,82.72
2018-12-24T10:08:19.173Z,82.50
2018-12-24T10:10:48.490Z,81.64
2018-12-24T10:13:17.782Z,82.31
2018-12-24T10:15:47.032Z,82.57
2018-12-24T10:18:16.300Z,82.26
2018-12-24T10:20:45.575Z,82.31
2018-12-24T10:23:14.826Z,81.77
2018-12-24T10:25:44.329Z,81.42
2018-12-24T10:28:13.571Z,81.15
2018-12-24T10:30:42.858Z,81.75
2018-12-24T10:33:12.150Z,81.26
2018-12-24T10:35:41.411Z,81.22
2018-12-24T10:38:10.715Z,81.39
2018-12-24T10:41:02.047Z,81.20
2018-12-24T10:43:31.389Z,80.96
2018-12-24T10:46:00.706Z,80.34
2018-12-24T10:48:29.970Z,78.00
2018-12-24T10:50:59.286Z,78.33
2018-12-24T10:53:28.623Z,78.57
2018-12-24T10:55:57.882Z,78.38
2018-12-24T10:58:27.255Z,77.93
2018-12-24T11:00:57.049Z,78.01
2018-12-24T11:03:26.391Z,77.02
2018-12-24T11:05:55.672Z,77.75
2018-12-24T11:08:25.045Z,76.82
2018-12-24T11:10:54.470Z,75.29
2018-12-24T11:13:23.827Z,75.72
2018-12-24T11:15:53.156Z,72.88
2018-12-24T11:18:22.454Z,71.43
2018-12-24T11:20:51.863Z,70.64
2018-12-24T11:23:21.138Z,69.87
2018-12-24T11:25:50.536Z,68.82
2018-12-24T11:28:19.880Z,65.34
2018-12-24T11:30:49.236Z,65.68
2018-12-24T11:33:18.490Z,65.08
2018-12-24T11:35:47.814Z,66.26
2018-12-24T11:38:17.169Z,66.25
2018-12-24T11:40:46.641Z,67.13
2018-12-24T11:43:15.975Z,67.18
2018-12-24T11:45:45.212Z,66.95
2018-12-24T11:48:14.692Z,63.62
2018-12-24T11:50:43.943Z,61.79
2018-12-24T11:53:13.455Z,57.83
2018-12-24T11:55:42.975Z,56.21
2018-12-24T11:58:13.239Z,53.99
2018-12-24T12:00:41.941Z,53.81
2018-12-24T12:03:12.733Z,53.20
2018-12-24T12:05:40.511Z,53.58
2018-12-24T12:08:09.934Z,53.58
2018-12-24T12:10:39.305Z,54.27
2018-12-24T12:13:08.600Z,53.09
2018-12-24T12:15:42.614Z,50.81
2018-12-24T12:18:07.295Z,52.35
2018-12-24T12:20:36.692Z,52.35
2018-12-24T12:23:05.973Z,54.90
2018-12-24T12:25:35.243Z,56.44
2018-12-24T12:28:04.641Z,57.50
2018-12-24T12:30:33.924Z,57.08
2018-12-24T12:33:03.384Z,57.83
2018-12-24T12:35:32.661Z,56.71
2018-12-24T12:38:02.083Z,55.58
2018-12-24T12:40:31.446Z,56.23
2018-12-24T12:43:00.709Z,55.83
2018-12-24T12:45:30.029Z,52.63
2018-12-24T12:47:59.316Z,52.63
2018-12-24T12:50:28.838Z,52.93
2018-12-24T12:52:58.307Z,50.66
2018-12-24T12:55:27.638Z,50.73
2018-12-24T12:57:57.181Z,54.41
2018-12-24T13:00:26.518Z,54.41
2018-12-24T13:02:55.984Z,55.48
2018-12-24T13:05:25.375Z,57.64
2018-12-24T13:07:54.799Z,58.92
2018-12-24T13:10:24.177Z,59.04
2018-12-24T13:12:53.467Z,59.03
2018-12-24T13:15:22.807Z,60.31
2018-12-24T13:17:52.183Z,61.94
2018-12-24T13:20:25.141Z,61.50
2018-12-24T13:22:50.811Z,60.56
2018-12-24T13:25:20.141Z,61.10
2018-12-24T13:27:49.510Z,62.45
2018-12-24T13:30:18.890Z,63.05
2018-12-24T13:32:48.288Z,65.08
2018-12-24T13:35:17.585Z,65.59
2018-12-24T13:37:46.903Z,66.81
2018-12-24T13:40:16.248Z,68.28
2018-12-24T13:42:45.703Z,69.06
2018-12-24T13:45:14.964Z,69.63
2018-12-24T13:47:44.422Z,69.79
2018-12-24T13:50:13.673Z,70.53
2018-12-24T13:52:43.016Z,71.14
2018-12-24T13:55:12.397Z,71.88
2018-12-24T13:57:41.707Z,72.06
2018-12-24T14:00:10.958Z,71.86
2018-12-24T14:02:40.217Z,72.10
2018-12-24T14:05:09.510Z,71.35
2018-12-24T14:07:38.862Z,71.97
2018-12-24T14:10:08.314Z,72.01
2018-12-24T14:12:37.933Z,72.34
2018-12-24T14:15:07.614Z,72.13
2018-12-24T14:17:37.012Z,71.84
2018-12-24T14:20:06.961Z,72.00
2018-12-24T14:22:36.217Z,71.55
2018-12-24T14:25:05.631Z,71.51
2018-12-24T14:27:34.961Z,71.49
2018-12-24T14:30:04.869Z,71.82
2018-12-24T14:32:34.138Z,72.42
2018-12-24T14:35:03.447Z,72.42
2018-12-24T14:37:32.787Z,72.43
2018-12-24T14:40:02.165Z,73.05
2018-12-24T14:42:32.159Z,73.32
2018-12-24T14:45:01.474Z,73.61
2018-12-24T14:47:31.227Z,73.65
2018-12-24T14:50:00.492Z,73.70
2018-12-24T14:52:29.761Z,73.78
2018-12-24T14:54:59.108Z,73.52
2018-12-24T14:57:28.398Z,74.31
2018-12-24T14:59:57.723Z,74.10
2018-12-24T15:02:27.142Z,74.36
2018-12-24T15:04:56.544Z,74.37
2018-12-24T15:07:25.800Z,74.38
2018-12-24T15:09:55.123Z,74.16
2018-12-24T15:12:24.519Z,74.44
2018-12-24T15:14:53.768Z,74.49
2018-12-24T15:17:23.045Z,74.49
2018-12-24T15:19:52.399Z,74.72
2018-12-24T15:22:21.632Z,75.22
2018-12-24T15:24:50.899Z,74.88
2018-12-24T15:27:20.178Z,75.17
2018-12-24T15:29:49.493Z,75.75
2018-12-24T15:32:18.805Z,75.39
2018-12-24T15:34:48.276Z,75.05
2018-12-24T15:37:17.531Z,75.13
2018-12-24T15:39:46.875Z,75.26
2018-12-24T15:42:16.077Z,75.17
2018-12-24T15:44:45.433Z,75.24
2018-12-24T15:47:14.688Z,75.07
2018-12-24T15:49:43.999Z,75.01
2018-12-24T15:52:13.238Z,74.77
2018-12-24T15:54:42.545Z,74.71
2018-12-24T15:57:11.840Z,74.74
2018-12-24T15:59:41.106Z,74.86
2018-12-24T16:02:10.372Z,74.60
2018-12-24T16:04:39.728Z,74.64
2018-12-24T16:07:09.052Z,74.52
2018-12-24T16:09:38.269Z,74.98
2018-12-24T16:12:07.663Z,74.89
2018-12-24T16:14:36.921Z,75.07
2018-12-24T16:17:06.179Z,74.73
2018-12-24T16:19:35.567Z,74.99
2018-12-24T16:22:04.921Z,75.29
2018-12-24T16:24:34.183Z,75.22
2018-12-24T16:27:03.419Z,75.09
2018-12-24T16:29:32.675Z,75.20
2018-12-24T16:32:02.025Z,75.42
2018-12-24T16:34:31.449Z,75.34
2018-12-24T16:37:00.689Z,75.50
2018-12-24T16:39:30.039Z,75.54
2018-12-24T16:41:59.318Z,75.53
2018-12-24T16:44:28.642Z,75.41
2018-12-24T16:46:59.540Z,75.72
2018-12-24T16:49:27.238Z,76.43
2018-12-24T16:51:56.568Z,77.12
2018-12-24T16:54:25.837Z,78.72
2018-12-24T16:56:55.086Z,80.08
2018-12-24T16:59:24.350Z,80.70
2018-12-24T17:01:53.634Z,81.34
2018-12-24T17:04:22.921Z,81.79
2018-12-24T17:06:52.390Z,81.74
2018-12-24T17:09:21.934Z,81.95
2018-12-24T17:11:51.390Z,82.51
2018-12-24T17:14:20.842Z,82.22
2018-12-24T17:16:50.278Z,82.20
2018-12-24T17:19:19.778Z,82.22
2018-12-24T17:21:49.248Z,82.21
2018-12-24T17:24:18.599Z,82.02
2018-12-24T17:26:47.839Z,82.21
2018-12-24T17:29:17.188Z,82.46
2018-12-24T17:31:46.504Z,82.91
2018-12-24T17:34:15.744Z,82.89
2018-12-24T17:36:45.104Z,83.24
2018-12-24T17:39:14.399Z,83.20
2018-12-24T17:41:43.706Z,83.22
2018-12-24T17:44:12.983Z,83.26
2018-12-24T17:46:42.284Z,83.24
2018-12-24T17:49:11.542Z,83.33
2018-12-24T17:51:40.906Z,83.62
2018-12-24T17:54:10.137Z,83.95
2018-12-24T17:56:39.384Z,84.03
2018-12-24T17:59:08.681Z,84.12
2018-12-24T18:01:37.987Z,84.60
2018-12-24T18:04:09.086Z,84.93
2018-12-24T18:06:36.475Z,85.03
2018-12-24T18:09:08.107Z,85.25
2018-12-24T18:11:37.405Z,85.14
2018-12-24T18:14:06.757Z,85.51
2018-12-24T18:16:36.049Z,85.51
2018-12-24T18:19:05.286Z,85.87
2018-12-24T18:21:34.591Z,85.83
2018-12-24T18:24:03.961Z,86.45
2018-12-24T18:26:33.240Z,86.95
2018-12-24T18:29:02.507Z,86.61
2018-12-24T18:31:31.743Z,86.70
2018-12-24T18:34:00.974Z,86.63
2018-12-24T18:36:30.255Z,86.85
2018-12-24T18:38:59.474Z,86.95
2018-12-24T18:41:28.715Z,87.12
2018-12-24T18:43:57.960Z,86.74
2018-12-24T18:46:27.199Z,86.86
2018-12-24T18:48:56.574Z,86.88
2018-12-24T18:51:25.840Z,86.58
2018-12-24T18:53:55.141Z,86.60
2018-12-24T18:56:24.431Z,86.87
2018-12-24T18:58:53.720Z,86.56
2018-12-24T19:01:22.961Z,86.50
2018-12-24T19:03:53.010Z,86.51
2018-12-24T19:06:22.276Z,86.24
2018-12-24T19:08:51.575Z,85.95
2018-12-24T19:11:20.908Z,86.02
2018-12-24T19:13:50.183Z,85.88
2018-12-24T19:16:19.498Z,85.61
2018-12-24T19:18:48.757Z,85.58
2018-12-24T19:21:18.072Z,85.24
2018-12-24T19:23:47.344Z,85.04
2018-12-24T19:26:16.710Z,84.83
2018-12-24T19:28:45.956Z,85.28
2018-12-24T19:31:15.234Z,85.46
2018-12-24T19:33:44.503Z,85.55
2018-12-24T19:36:13.761Z,85.16
2018-12-24T19:38:43.051Z,85.38
2018-12-24T19:41:12.385Z,85.41
2018-12-24T19:43:41.655Z,85.65
2018-12-24T19:46:10.933Z,85.41
2018-12-24T19:48:40.179Z,85.40
2018-12-24T19:51:09.426Z,85.25
2018-12-24T19:53:38.695Z,85.63
2018-12-24T19:56:07.944Z,85.59
2018-12-24T19:58:37.243Z,85.66
2018-12-24T20:01:06.484Z,85.66
2018-12-24T20:03:35.739Z,85.71
2018-12-24T20:06:05.139Z,85.67
2018-12-24T20:08:34.397Z,85.76
2018-12-24T20:11:03.673Z,85.89
2018-12-24T20:13:32.926Z,85.90
2018-12-24T20:16:02.173Z,85.96
2018-12-24T20:18:31.427Z,86.03
2018-12-24T20:21:00.681Z,86.02
2018-12-24T20:23:30.017Z,85.82
2018-12-24T20:25:59.293Z,85.64
2018-12-24T20:28:28.586Z,85.63
2018-12-24T20:30:57.847Z,84.72
2018-12-24T20:33:27.142Z,84.63
2018-12-24T20:35:56.407Z,84.63
2018-12-24T20:38:25.712Z,84.28
2018-12-24T20:40:55.007Z,84.53
2018-12-24T20:43:24.269Z,84.53
2018-12-24T20:45:53.609Z,84.27
2018-12-24T20:48:22.895Z,84.40
2018-12-24T20:50:52.182Z,84.40
2018-12-24T20:53:21.608Z,84.62
2018-12-24T20:55:50.859Z,84.27
2018-12-24T20:58:20.133Z,84.41
2018-12-24T21:00:49.435Z,84.68
2018-12-24T21:03:18.717Z,84.41
2018-12-24T21:05:48.038Z,84.58
2018-12-24T21:08:17.275Z,84.50
2018-12-24T21:10:46.549Z,84.91
2018-12-24T21:13:15.825Z,84.85
2018-12-24T21:15:45.111Z,84.69
2018-12-24T21:18:15.150Z,84.67
2018-12-24T21:20:43.721Z,84.49
2018-12-24T21:23:13.045Z,84.37
2018-12-24T21:25:42.281Z,84.57
2018-12-24T21:28:11.647Z,84.37
2018-12-24T21:30:40.935Z,83.93
2018-12-24T21:33:10.347Z,83.49
2018-12-24T21:35:39.599Z,83.57
2018-12-24T21:38:08.873Z,83.62
2018-12-24T21:40:38.222Z,83.49
2018-12-24T21:43:07.466Z,83.51
2018-12-24T21:45:36.766Z,83.58
2018-12-24T21:48:06.013Z,83.77
2018-12-24T21:50:35.274Z,83.50
2018-12-24T21:53:04.638Z,82.97
2018-12-24T21:55:33.987Z,83.15
2018-12-24T21:58:03.533Z,83.07
2018-12-24T22:00:32.800Z,82.94
2018-12-24T22:03:02.057Z,83.06
2018-12-24T22:05:31.294Z,83.21
2018-12-24T22:08:00.663Z,83.12
2018-12-24T22:10:29.938Z,83.17
2018-12-24T22:12:59.183Z,82.84
2018-12-24T22:15:28.407Z,82.82
2018-12-24T22:17:57.673Z,82.99
2018-12-24T22:20:27.165Z,83.10
2018-12-24T22:22:56.436Z,83.00
2018-12-24T22:25:25.693Z,83.26
2018-12-24T22:27:54.957Z,83.25
2018-12-24T22:30:24.241Z,83.31
2018-12-24T22:32:53.505Z,83.39
2018-12-24T22:35:22.763Z,83.28
2018-12-24T22:37:52.049Z,83.34
2018-12-24T22:40:21.321Z,83.28
2018-12-24T22:42:50.637Z,83.52
2018-12-24T22:45:19.923Z,83.64
2018-12-24T22:47:49.182Z,83.68
2018-12-24T22:50:18.452Z,83.64
2018-12-24T22:52:47.740Z,83.84
2018-12-24T22:55:17.029Z,84.14
2018-12-24T22:57:44.958Z,84.15
2018-12-24T23:00:15.717Z,84.14
2018-12-24T23:02:45.060Z,84.12
2018-12-24T23:05:14.369Z,84.21
2018-12-24T23:07:43.714Z,84.01
2018-12-24T23:10:13.072Z,83.47
2018-12-24T23:12:42.325Z,83.62
2018-12-24T23:15:11.588Z,83.46
2018-12-24T23:17:40.877Z,83.58
2018-12-24T23:20:10.163Z,82.90
2018-12-24T23:22:39.409Z,83.02
2018-12-24T23:25:08.662Z,82.89
2018-12-24T23:27:37.925Z,82.69
2018-12-24T23:30:07.888Z,82.80
2018-12-24T23:32:37.127Z,82.70
2018-12-24T23:35:06.500Z,82.76
2018-12-24T23:37:35.796Z,82.99
2018-12-24T23:40:05.509Z,83.26
2018-12-24T23:42:34.861Z,82.90
2018-12-24T23:45:04.566Z,82.85
2018-12-24T23:47:36.771Z,83.30
2018-12-24T23:50:06.193Z,83.33
2018-12-24T23:52:35.502Z,83.42
2018-12-24T23:55:04.724Z,83.23
2018-12-24T23:57:33.992Z,83.14
